createdAt,value
2018-03-21T00:01:01.575Z,14.80
2018-03-21T00:03:30.224Z,5.45
2018-03-21T00:05:58.863Z,7.57
2018-03-21T00:08:27.329Z,4.70
2018-03-21T00:10:55.914Z,6.03
2018-03-21T00:13:24.295Z,9.77
2018-03-21T00:15:52.705Z,8.63
2018-03-21T00:18:21.095Z,11.15
2018-03-21T00:20:49.484Z,9.85
2018-03-21T00:23:17.971Z,10.35
2018-03-21T00:25:46.378Z,6.55
2018-03-21T00:28:14.809Z,22.65
2018-03-21T00:30:43.204Z,7.75
2018-03-21T00:33:11.600Z,7.82
2018-03-21T00:35:40.022Z,7.28
2018-03-21T00:38:08.441Z,5.53
2018-03-21T00:40:36.920Z,5.43
2018-03-21T00:43:05.306Z,5.32
2018-03-21T00:45:33.709Z,6.53
2018-03-21T00:48:02.098Z,4.82
2018-03-21T00:50:30.585Z,10.38
2018-03-21T00:52:59.024Z,6.12
2018-03-21T00:55:27.450Z,6.00
2018-03-21T00:57:55.844Z,6.37
2018-03-21T01:00:24.307Z,13.98
2018-03-21T01:02:52.741Z,8.50
2018-03-21T01:05:21.116Z,6.22
2018-03-21T01:07:49.656Z,8.70
2018-03-21T01:10:18.059Z,6.37
2018-03-21T01:12:46.581Z,5.35
2018-03-21T01:15:14.952Z,8.18
2018-03-21T01:17:43.365Z,14.40
2018-03-21T01:20:11.819Z,9.43
2018-03-21T01:22:40.217Z,11.48
2018-03-21T01:25:08.603Z,6.28
2018-03-21T01:27:37.103Z,3.95
2018-03-21T01:30:05.559Z,7.70
2018-03-21T01:32:33.976Z,7.22
2018-03-21T01:35:02.358Z,5.30
2018-03-21T01:37:30.817Z,6.62
2018-03-21T01:39:59.308Z,4.68
2018-03-21T01:45:02.295Z,6.32
2018-03-21T01:47:30.779Z,10.63
2018-03-21T01:49:59.238Z,9.30
2018-03-21T01:52:27.621Z,6.40
2018-03-21T01:54:56.016Z,8.18
2018-03-21T01:57:24.473Z,12.27
2018-03-21T01:59:52.964Z,10.63
2018-03-21T02:02:21.437Z,4.80
2018-03-21T02:04:49.853Z,7.68
2018-03-21T02:07:18.239Z,9.02
2018-03-21T02:09:46.644Z,8.45
2018-03-21T02:12:15.035Z,5.85
2018-03-21T02:14:43.491Z,6.53
2018-03-21T02:17:11.869Z,5.62
2018-03-21T02:19:40.271Z,2.72
2018-03-21T02:22:08.665Z,5.35
2018-03-21T02:24:37.060Z,6.22
2018-03-21T02:27:05.495Z,6.22
2018-03-21T02:29:33.903Z,7.75
2018-03-21T02:32:02.369Z,5.00
2018-03-21T02:34:30.781Z,7.12
2018-03-21T02:39:23.399Z,6.07
2018-03-21T02:41:51.803Z,5.78
2018-03-21T02:44:20.297Z,5.45
2018-03-21T02:46:48.704Z,11.70
2018-03-21T02:49:17.188Z,7.45
2018-03-21T02:51:45.591Z,4.07
2018-03-21T02:54:13.944Z,5.20
2018-03-21T02:56:42.493Z,7.55
2018-03-21T02:59:10.960Z,7.80
2018-03-21T03:01:39.365Z,12.20
2018-03-21T03:04:07.742Z,8.00
2018-03-21T03:06:36.188Z,8.40
2018-03-21T03:09:05.333Z,8.30
2018-03-21T03:11:33.894Z,6.00
2018-03-21T03:14:02.494Z,8.18
2018-03-21T03:16:31.010Z,4.87
2018-03-21T03:18:59.413Z,7.68
2018-03-21T03:21:27.912Z,8.15
2018-03-21T03:23:56.290Z,2.12
2018-03-21T03:26:24.844Z,5.80
2018-03-21T03:28:53.203Z,5.22
2018-03-21T03:31:21.672Z,6.00
2018-03-21T03:33:50.045Z,3.28
2018-03-21T03:36:18.486Z,4.37
2018-03-21T03:38:46.870Z,5.40
2018-03-21T03:41:15.315Z,8.85
2018-03-21T03:43:43.771Z,18.83
2018-03-21T03:46:12.521Z,5.37
2018-03-21T03:48:40.886Z,20.40
2018-03-21T03:51:09.280Z,5.50
2018-03-21T03:53:37.675Z,4.10
2018-03-21T03:56:06.140Z,7.57
2018-03-21T03:58:34.602Z,4.85
2018-03-21T04:01:03.077Z,5.05
2018-03-21T04:03:31.522Z,4.50
2018-03-21T04:05:59.945Z,8.85
2018-03-21T04:08:28.311Z,8.68
2018-03-21T04:10:56.720Z,4.07
2018-03-21T04:13:25.079Z,5.32
2018-03-21T04:15:53.472Z,6.45
2018-03-21T04:18:21.868Z,10.93
2018-03-21T04:20:50.370Z,5.10
2018-03-21T04:23:18.775Z,6.82
2018-03-21T04:25:47.164Z,4.30
2018-03-21T04:28:15.609Z,5.47
2018-03-21T04:30:44.009Z,2.40
2018-03-21T04:33:12.425Z,6.82
2018-03-21T04:35:40.820Z,3.83
2018-03-21T04:38:09.290Z,3.45
2018-03-21T04:40:37.697Z,4.18
2018-03-21T04:43:06.092Z,3.97
2018-03-21T04:45:34.495Z,6.00
2018-03-21T04:48:02.886Z,5.20
2018-03-21T04:50:31.406Z,2.83
2018-03-21T04:52:59.863Z,6.50
2018-03-21T04:55:28.388Z,26.02
2018-03-21T04:57:56.785Z,9.65
2018-03-21T05:00:25.185Z,15.23
2018-03-21T05:02:53.606Z,9.95
2018-03-21T05:05:22.051Z,4.18
2018-03-21T05:07:50.508Z,3.70
2018-03-21T05:10:18.912Z,11.15
2018-03-21T05:12:47.277Z,5.75
2018-03-21T05:15:15.708Z,7.82
2018-03-21T05:17:44.173Z,6.60
2018-03-21T05:20:12.558Z,6.85
2018-03-21T05:22:40.965Z,3.85
2018-03-21T05:25:09.395Z,7.25
2018-03-21T05:27:37.802Z,5.32
2018-03-21T05:30:06.385Z,6.97
2018-03-21T05:32:34.811Z,3.90
2018-03-21T05:35:03.420Z,6.05
2018-03-21T05:37:31.968Z,3.40
2018-03-21T05:40:00.383Z,5.97
2018-03-21T05:42:28.827Z,4.18
2018-03-21T05:44:57.301Z,4.70
2018-03-21T05:47:25.729Z,11.15
2018-03-21T05:49:54.139Z,5.37
2018-03-21T05:52:22.590Z,7.40
2018-03-21T05:54:51.036Z,14.27
2018-03-21T05:57:19.403Z,6.55
2018-03-21T05:59:47.915Z,3.90
2018-03-21T06:02:16.423Z,8.00
2018-03-21T06:04:44.812Z,6.53
2018-03-21T06:07:13.275Z,5.70
2018-03-21T06:09:41.686Z,2.95
2018-03-21T06:12:10.076Z,6.93
2018-03-21T06:14:38.486Z,5.68
2018-03-21T06:17:06.940Z,3.90
2018-03-21T06:19:35.451Z,8.05
2018-03-21T06:22:03.859Z,11.35
2018-03-21T06:24:32.275Z,16.75
2018-03-21T06:27:00.705Z,8.45
2018-03-21T06:29:29.092Z,7.90
2018-03-21T06:31:57.558Z,6.60
2018-03-21T06:34:26.189Z,9.07
2018-03-21T06:36:54.624Z,7.60
2018-03-21T06:39:23.135Z,5.87
2018-03-21T06:41:56.700Z,7.28
2018-03-21T06:44:25.252Z,4.82
2018-03-21T06:46:53.701Z,4.90
2018-03-21T06:49:22.166Z,28.48
2018-03-21T06:51:50.709Z,18.23
2018-03-21T06:54:19.171Z,8.73
2018-03-21T06:56:47.653Z,12.50
2018-03-21T06:59:16.064Z,6.50
2018-03-21T07:01:44.673Z,7.87
2018-03-21T07:04:13.373Z,8.93
2018-03-21T07:06:42.473Z,11.07
2018-03-21T07:09:10.935Z,9.43
2018-03-21T07:11:39.323Z,6.37
2018-03-21T07:14:20.174Z,6.20
2018-03-21T07:16:48.600Z,7.83
2018-03-21T07:19:17.044Z,7.23
2018-03-21T07:21:45.473Z,11.40
2018-03-21T07:24:14.181Z,10.10
2018-03-21T07:26:42.598Z,9.40
2018-03-21T07:29:11.168Z,18.83
2018-03-21T07:31:39.570Z,4.70
2018-03-21T07:34:08.065Z,8.60
2018-03-21T07:36:36.510Z,8.93
2018-03-21T07:39:04.939Z,4.10
2018-03-21T07:41:34.277Z,3.97
2018-03-21T07:44:02.733Z,6.23
2018-03-21T07:46:31.128Z,5.20
2018-03-21T07:48:59.608Z,4.23
2018-03-21T07:51:28.050Z,5.23
2018-03-21T07:53:56.652Z,4.83
2018-03-21T07:56:25.099Z,6.97
2018-03-21T07:58:53.601Z,3.43
2018-03-21T08:01:22.433Z,3.40
2018-03-21T08:03:50.964Z,4.60
2018-03-21T08:06:19.987Z,3.40
2018-03-21T08:08:48.550Z,2.90
2018-03-21T08:11:16.995Z,6.40
2018-03-21T08:13:45.479Z,4.17
2018-03-21T08:16:13.912Z,6.37
2018-03-21T08:18:42.345Z,7.40
2018-03-21T08:21:10.749Z,4.80
2018-03-21T08:23:39.274Z,7.00
2018-03-21T08:26:07.745Z,3.93
2018-03-21T08:28:36.181Z,8.63
2018-03-21T08:31:04.575Z,10.77
2018-03-21T08:33:32.976Z,10.60
2018-03-21T08:36:01.408Z,7.00
2018-03-21T08:38:30.022Z,4.73
2018-03-21T08:40:58.459Z,3.60
2018-03-21T08:43:26.881Z,9.70
2018-03-21T08:45:55.328Z,9.70
2018-03-21T08:48:23.762Z,10.40
2018-03-21T08:50:52.403Z,4.50
2018-03-21T08:53:20.957Z,8.37
2018-03-21T08:55:49.433Z,4.00
2018-03-21T08:58:17.949Z,15.40
2018-03-21T09:00:46.492Z,8.17
2018-03-21T09:03:15.021Z,8.27
2018-03-21T09:05:43.428Z,9.57
2018-03-21T09:08:11.824Z,6.33
2018-03-21T09:10:40.261Z,12.67
2018-03-21T09:13:08.646Z,9.77
2018-03-21T09:15:37.200Z,5.27
2018-03-21T09:18:06.687Z,5.03
2018-03-21T09:20:35.256Z,18.53
2018-03-21T09:23:03.723Z,11.67
2018-03-21T09:25:32.137Z,37.93
2018-03-21T09:28:00.576Z,6.60
2018-03-21T09:30:28.973Z,4.67
2018-03-21T09:32:57.360Z,19.50
2018-03-21T09:35:25.803Z,6.50
2018-03-21T09:37:54.266Z,5.03
2018-03-21T09:40:22.948Z,4.03
2018-03-21T09:42:51.381Z,5.60
2018-03-21T09:45:19.847Z,5.70
2018-03-21T09:47:48.249Z,12.60
2018-03-21T09:50:16.719Z,8.23
2018-03-21T09:52:45.403Z,17.13
2018-03-21T09:55:13.951Z,5.87
2018-03-21T09:57:42.330Z,18.23
2018-03-21T10:00:10.757Z,8.73
2018-03-21T10:02:39.166Z,19.33
2018-03-21T10:05:07.629Z,8.53
2018-03-21T10:07:36.146Z,3.33
2018-03-21T10:10:04.815Z,10.97
2018-03-21T10:12:33.205Z,7.23
2018-03-21T10:15:01.713Z,31.57
2018-03-21T10:17:30.145Z,11.63
2018-03-21T10:19:58.578Z,15.30
2018-03-21T10:22:27.100Z,9.33
2018-03-21T10:24:55.528Z,4.03
2018-03-21T10:27:23.968Z,18.37
2018-03-21T10:29:52.367Z,7.97
2018-03-21T10:32:20.787Z,5.53
2018-03-21T10:34:49.312Z,5.80
2018-03-21T10:37:17.708Z,8.07
2018-03-21T10:39:46.120Z,7.60
2018-03-21T10:42:14.516Z,11.80
2018-03-21T10:44:43.016Z,13.50
2018-03-21T10:47:11.410Z,6.40
2018-03-21T10:49:39.790Z,5.73
2018-03-21T10:52:08.192Z,3.70
2018-03-21T10:54:36.654Z,6.40
2018-03-21T10:57:05.272Z,4.40
2018-03-21T10:59:33.691Z,5.97
2018-03-21T11:02:07.662Z,5.77
2018-03-21T11:04:36.140Z,14.60
2018-03-21T11:07:04.749Z,7.27
2018-03-21T11:09:34.265Z,19.70
2018-03-21T11:12:03.032Z,21.47
2018-03-21T11:14:32.116Z,10.53
2018-03-21T11:17:07.678Z,17.83
2018-03-21T11:19:44.190Z,3.70
2018-03-21T11:22:18.662Z,7.47
2018-03-21T11:24:47.204Z,6.03
2018-03-21T11:27:21.620Z,11.87
2018-03-21T11:29:50.438Z,14.90
2018-03-21T11:32:18.959Z,7.37
2018-03-21T11:34:48.330Z,18.40
2018-03-21T11:37:20.072Z,8.80
2018-03-21T11:39:48.535Z,13.70
2018-03-21T11:42:17.051Z,9.10
2018-03-21T11:44:45.480Z,6.03
2018-03-21T11:47:13.906Z,7.40
2018-03-21T11:49:42.332Z,6.43
2018-03-21T11:52:10.820Z,7.10
2018-03-21T11:54:40.041Z,10.63
2018-03-21T11:57:08.490Z,8.37
2018-03-21T11:59:36.933Z,3.43
2018-03-21T12:02:05.547Z,9.10
2018-03-21T12:04:34.027Z,12.50
2018-03-21T12:07:02.625Z,4.67
2018-03-21T12:09:31.037Z,4.67
2018-03-21T12:12:00.460Z,14.80
2018-03-21T12:14:28.863Z,16.27
2018-03-21T12:16:57.510Z,6.40
2018-03-21T12:19:25.925Z,5.43
2018-03-21T12:21:54.372Z,3.77
2018-03-21T12:24:22.965Z,4.40
2018-03-21T12:26:55.162Z,15.07
2018-03-21T12:29:23.696Z,3.80
2018-03-21T12:31:52.153Z,18.10
2018-03-21T12:34:20.652Z,7.50
2018-03-21T12:36:49.102Z,6.17
2018-03-21T12:39:17.539Z,5.90
2018-03-21T12:41:45.939Z,10.83
2018-03-21T12:44:14.712Z,5.87
2018-03-21T12:46:43.321Z,5.53
2018-03-21T12:49:11.868Z,3.80
2018-03-21T12:51:40.812Z,2.93
2018-03-21T12:54:09.249Z,5.23
2018-03-21T12:56:37.665Z,3.33
2018-03-21T12:59:06.260Z,6.20
2018-03-21T13:01:34.689Z,4.80
2018-03-21T13:04:03.113Z,5.70
2018-03-21T13:06:31.652Z,2.03
2018-03-21T13:09:00.113Z,8.30
2018-03-21T13:11:28.548Z,10.97
2018-03-21T13:13:56.956Z,8.37
2018-03-21T13:16:25.668Z,4.67
2018-03-21T13:18:54.075Z,9.23
2018-03-21T13:21:22.497Z,10.63
2018-03-21T13:23:50.951Z,4.83
2018-03-21T13:26:19.412Z,6.47
2018-03-21T13:28:47.819Z,5.00
2018-03-21T13:31:16.232Z,9.17
2018-03-21T13:33:44.644Z,5.37
2018-03-21T13:36:13.211Z,53.13
2018-03-21T13:38:41.589Z,12.37
2018-03-21T13:41:10.056Z,6.40
2018-03-21T13:43:39.494Z,38.93
2018-03-21T13:46:07.898Z,5.17
2018-03-21T13:48:36.331Z,8.80
2018-03-21T13:51:04.734Z,13.13
2018-03-21T13:53:33.218Z,7.00
2018-03-21T13:56:01.607Z,5.30
2018-03-21T13:58:30.102Z,7.53
2018-03-21T14:00:58.635Z,19.87
2018-03-21T14:03:27.074Z,9.60
2018-03-21T14:05:55.499Z,18.33
2018-03-21T14:08:23.978Z,19.80
2018-03-21T14:10:52.474Z,10.03
2018-03-21T14:13:21.237Z,10.97
2018-03-21T14:15:49.699Z,11.50
2018-03-21T14:18:18.069Z,10.80
2018-03-21T14:20:46.496Z,10.60
2018-03-21T14:23:14.992Z,13.70
2018-03-21T14:25:43.570Z,27.77
2018-03-21T14:28:11.986Z,19.60
2018-03-21T14:30:40.441Z,15.07
2018-03-21T14:33:08.868Z,20.70
2018-03-21T14:35:37.295Z,29.60
2018-03-21T14:38:07.179Z,29.63
2018-03-21T14:40:35.639Z,26.13
2018-03-21T14:43:04.147Z,40.13
2018-03-21T14:45:32.521Z,35.00
2018-03-21T14:48:00.920Z,38.57
2018-03-21T14:50:29.356Z,31.27
2018-03-21T14:52:57.864Z,32.87
2018-03-21T14:55:26.320Z,81.97
2018-03-21T14:57:54.744Z,38.97
2018-03-21T15:00:23.140Z,36.67
2018-03-21T15:02:51.547Z,37.20
2018-03-21T15:05:19.984Z,33.83
2018-03-21T15:07:48.561Z,42.80
2018-03-21T15:10:16.975Z,38.43
2018-03-21T15:12:45.377Z,38.33
2018-03-21T15:15:13.814Z,45.87
2018-03-21T15:17:42.372Z,43.30
2018-03-21T15:20:10.910Z,47.27
2018-03-21T15:22:40.036Z,43.00
2018-03-21T15:25:08.903Z,40.57
2018-03-21T15:27:40.622Z,38.00
2018-03-21T15:30:09.045Z,40.77
2018-03-21T15:32:41.624Z,37.40
2018-03-21T15:35:11.661Z,36.57
2018-03-21T15:37:40.383Z,52.73
2018-03-21T15:40:09.024Z,29.13
2018-03-21T15:42:37.585Z,31.37
2018-03-21T15:45:06.138Z,33.40
2018-03-21T15:47:34.704Z,27.20
2018-03-21T15:50:03.250Z,27.90
2018-03-21T15:52:31.887Z,27.83
2018-03-21T15:55:00.665Z,32.73
2018-03-21T15:57:30.805Z,25.40
2018-03-21T16:00:00.649Z,27.87
2018-03-21T16:02:29.864Z,34.80
2018-03-21T16:04:59.521Z,25.07
2018-03-21T16:07:31.364Z,26.70
2018-03-21T16:10:00.584Z,18.08
2018-03-21T16:12:29.314Z,26.97
2018-03-21T16:14:58.047Z,20.65
2018-03-21T16:17:26.806Z,32.63
2018-03-21T16:19:55.391Z,29.70
2018-03-21T16:22:26.789Z,33.00
2018-03-21T16:25:02.288Z,34.05
2018-03-21T16:30:09.749Z,31.20
2018-03-21T16:32:41.838Z,40.83
2018-03-21T16:35:12.424Z,36.75
2018-03-21T16:37:41.025Z,39.92
2018-03-21T16:40:10.699Z,36.00
2018-03-21T16:42:51.146Z,37.22
2018-03-21T16:45:19.779Z,34.42
2018-03-21T16:47:48.346Z,36.90
2018-03-21T16:50:17.432Z,60.28
2018-03-21T16:52:46.018Z,49.53
2018-03-21T16:55:14.399Z,130.85
2018-03-21T16:57:42.851Z,41.33
2018-03-21T17:00:11.824Z,42.67
2018-03-21T17:02:40.326Z,39.83
2018-03-21T17:05:08.756Z,40.17
2018-03-21T17:07:37.261Z,36.25
2018-03-21T17:10:05.778Z,39.38
2018-03-21T17:12:34.624Z,48.03
2018-03-21T17:15:03.040Z,32.47
2018-03-21T17:17:31.517Z,34.60
2018-03-21T17:20:01.085Z,38.85
2018-03-21T17:22:29.504Z,38.88
2018-03-21T17:24:58.145Z,49.55
2018-03-21T17:27:26.569Z,32.45
2018-03-21T17:29:55.006Z,37.05
2018-03-21T17:32:23.480Z,32.63
2018-03-21T17:34:52.915Z,45.60
2018-03-21T17:37:21.608Z,33.47
2018-03-21T17:39:50.036Z,39.95
2018-03-21T17:42:18.475Z,37.55
2018-03-21T17:44:47.080Z,35.28
2018-03-21T17:47:15.503Z,35.80
2018-03-21T17:49:43.997Z,41.33
2018-03-21T17:52:12.430Z,43.65
2018-03-21T17:54:40.955Z,43.55
2018-03-21T17:57:10.816Z,47.22
2018-03-21T17:59:39.262Z,42.28
2018-03-21T18:02:07.784Z,38.88
2018-03-21T18:04:36.358Z,49.00
2018-03-21T18:07:04.787Z,44.70
2018-03-21T18:09:33.284Z,38.50
2018-03-21T18:12:01.773Z,42.15
2018-03-21T18:14:30.338Z,50.60
2018-03-21T18:20:07.904Z,34.70
2018-03-21T18:22:36.340Z,39.88
2018-03-21T18:25:05.001Z,43.22
2018-03-21T18:27:33.588Z,48.65
2018-03-21T18:30:02.314Z,38.60
2018-03-21T18:32:30.697Z,48.60
2018-03-21T18:34:59.246Z,48.67
2018-03-21T18:37:27.749Z,49.53
2018-03-21T18:39:56.543Z,41.80
2018-03-21T18:42:26.137Z,48.30
2018-03-21T18:44:54.949Z,56.70
2018-03-21T18:47:23.594Z,47.92
2018-03-21T18:49:52.531Z,54.38
2018-03-21T18:52:21.211Z,44.65
2018-03-21T18:54:49.807Z,46.92
2018-03-21T18:57:18.479Z,44.72
2018-03-21T18:59:46.884Z,41.33
2018-03-21T19:02:15.293Z,47.25
2018-03-21T19:04:43.852Z,54.97
2018-03-21T19:07:13.012Z,40.95
2018-03-21T19:09:41.513Z,44.67
2018-03-21T19:12:09.992Z,51.45
2018-03-21T19:14:38.397Z,52.85
2018-03-21T19:17:06.804Z,46.78
2018-03-21T19:19:35.835Z,49.78
2018-03-21T19:22:04.477Z,46.83
2018-03-21T19:24:33.322Z,46.00
2018-03-21T19:27:04.521Z,55.63
2018-03-21T19:29:50.161Z,53.50
2018-03-21T19:32:18.564Z,53.33
2018-03-21T19:34:46.942Z,44.13
2018-03-21T19:37:15.352Z,50.47
2018-03-21T19:39:43.733Z,44.80
2018-03-21T19:42:12.150Z,45.05
2018-03-21T19:44:40.552Z,57.83
2018-03-21T19:47:08.933Z,40.92
2018-03-21T19:49:37.476Z,46.08
2018-03-21T19:52:05.875Z,44.20
2018-03-21T19:54:34.263Z,41.72
2018-03-21T19:57:02.643Z,44.45
2018-03-21T19:59:31.133Z,54.47
2018-03-21T20:01:59.665Z,35.92
2018-03-21T20:04:28.202Z,43.08
2018-03-21T20:06:56.722Z,41.20
2018-03-21T20:09:25.297Z,45.45
2018-03-21T20:11:53.847Z,37.97
2018-03-21T20:14:22.332Z,43.70
2018-03-21T20:16:50.738Z,45.67
2018-03-21T20:19:19.125Z,42.38
2018-03-21T20:21:47.642Z,41.80
2018-03-21T20:24:16.237Z,37.58
2018-03-21T20:26:44.916Z,44.05
2018-03-21T20:29:13.313Z,53.70
2018-03-21T20:31:41.827Z,41.00
2018-03-21T20:34:10.227Z,50.83
2018-03-21T20:36:38.643Z,40.90
2018-03-21T20:39:07.040Z,40.22
2018-03-21T20:41:35.424Z,42.97
2018-03-21T20:44:03.934Z,47.35
2018-03-21T20:46:32.348Z,44.00
2018-03-21T20:49:00.930Z,48.75
2018-03-21T20:51:29.593Z,78.32
2018-03-21T20:53:58.496Z,43.17
2018-03-21T20:56:33.411Z,46.90
2018-03-21T20:59:01.872Z,37.95
2018-03-21T21:01:30.370Z,39.50
2018-03-21T21:03:59.285Z,52.25
2018-03-21T21:06:27.966Z,42.40
2018-03-21T21:08:57.038Z,41.92
2018-03-21T21:11:25.754Z,41.42
2018-03-21T21:13:54.541Z,46.13
2018-03-21T21:16:23.052Z,47.70
2018-03-21T21:18:51.601Z,51.05
2018-03-21T21:21:20.317Z,45.33
2018-03-21T21:23:49.018Z,48.80
2018-03-21T21:26:17.614Z,45.45
2018-03-21T21:28:45.988Z,45.78
2018-03-21T21:31:14.422Z,46.17
2018-03-21T21:33:42.872Z,43.80
2018-03-21T21:36:11.299Z,43.22
2018-03-21T21:38:39.779Z,45.38
2018-03-21T21:41:09.016Z,43.33
2018-03-21T21:43:37.453Z,48.20
2018-03-21T21:46:05.833Z,42.08
2018-03-21T21:48:34.208Z,44.10
2018-03-21T21:51:02.623Z,46.03
2018-03-21T21:53:31.140Z,40.47
2018-03-21T21:55:59.739Z,54.90
2018-03-21T21:58:28.393Z,45.97
2018-03-21T22:00:57.169Z,43.05
2018-03-21T22:03:25.923Z,46.25
2018-03-21T22:05:54.588Z,38.50
2018-03-21T22:08:23.266Z,42.90
2018-03-21T22:10:51.715Z,41.15
2018-03-21T22:13:20.227Z,41.03
2018-03-21T22:15:48.755Z,45.65
2018-03-21T22:18:17.156Z,43.47
2018-03-21T22:20:45.694Z,54.45
2018-03-21T22:23:14.082Z,40.05
2018-03-21T22:25:42.463Z,46.42
2018-03-21T22:28:10.888Z,49.45
2018-03-21T22:30:39.255Z,42.17
2018-03-21T22:33:07.676Z,61.83
2018-03-21T22:35:36.067Z,52.62
2018-03-21T22:38:04.444Z,49.78
2018-03-21T22:40:32.916Z,49.63
2018-03-21T22:43:01.323Z,49.17
2018-03-21T22:45:29.801Z,52.72
2018-03-21T22:47:58.431Z,56.37
2018-03-21T22:50:26.939Z,41.53
2018-03-21T22:52:55.478Z,42.92
2018-03-21T22:55:24.162Z,46.40
2018-03-21T22:57:52.766Z,47.95
2018-03-21T23:00:21.345Z,50.47
2018-03-21T23:02:51.539Z,45.33
2018-03-21T23:05:19.939Z,55.30
2018-03-21T23:07:48.394Z,57.67
2018-03-21T23:10:16.879Z,50.78
2018-03-21T23:12:45.456Z,54.13
2018-03-21T23:15:13.967Z,56.78
2018-03-21T23:17:42.362Z,57.55
2018-03-21T23:20:10.727Z,50.12
2018-03-21T23:22:39.107Z,51.00
2018-03-21T23:25:07.488Z,52.88
2018-03-21T23:27:35.918Z,48.42
2018-03-21T23:30:04.389Z,59.15
2018-03-21T23:32:32.912Z,48.80
2018-03-21T23:35:01.382Z,53.72
2018-03-21T23:37:29.832Z,52.20
2018-03-21T23:39:58.339Z,56.80
2018-03-21T23:42:26.925Z,55.50
2018-03-21T23:44:55.629Z,56.58
2018-03-21T23:47:24.311Z,49.47
2018-03-21T23:49:52.728Z,55.50
2018-03-21T23:52:21.369Z,57.95
2018-03-21T23:54:49.956Z,63.63
2018-03-21T23:57:18.432Z,68.62
2018-03-21T23:59:46.821Z,54.45
